Olmida — ZCNU4 — position and weather

sailwx.info

Track history (hours):
 
Tides and Currents Weather Stations Pressure Air Temp Water Temp Dewpoint Dewpoint Depression Visibility Wind Speed Wind Dir Waves Ship Positions

Olmida

Last reported at 2016-Jun-27 07:31 UTC. Time now 2016-Jun-28 22:27 UTC.
Position N 44°24' E 008°56'.

; draft 3.2 m.

Type: Pleasure craft. MMSI: 319196000.

Date/timePositionNaut miles runAvg speedWind from/ knotsBaromVisibWave heightAir tempDewpointWater temp
2016-Jun-27 07:31N 44°24' E 008°56'0 0.0
2016-Jun-27 06:31N 44°24' E 008°56'0 0.0
2016-Jun-27 05:28N 44°24' E 008°56'0 0.0
2016-Jun-27 04:31N 44°24' E 008°56'0 0.0
2016-Jun-27 03:31N 44°24' E 008°56'0 0.0
2016-Jun-27 02:31N 44°24' E 008°56'0 0.0
2016-Jun-27 01:28N 44°24' E 008°56'0 0.0
2016-Jun-27 00:31N 44°24' E 008°56'0 0.0
2016-Jun-26 23:31N 44°24' E 008°56'0 0.0
2016-Jun-26 22:31N 44°24' E 008°56'0 0.0
2016-Jun-26 21:31N 44°24' E 008°56'0 0.0
2016-Jun-26 20:28N 44°24' E 008°56'0 0.0
2016-Jun-26 19:31N 44°24' E 008°56'0 0.0
2016-Jun-26 18:31N 44°24' E 008°56'0 0.0
2016-Jun-26 17:31N 44°24' E 008°56'0 0.0
2016-Jun-26 16:31N 44°24' E 008°56'0 0.0
2016-Jun-26 15:28N 44°24' E 008°56'0 0.0
2016-Jun-26 14:28N 44°24' E 008°56'0 0.0
2016-Jun-26 13:28N 44°24' E 008°56'5 5.2
2016-Jun-26 12:33N 44°19' E 008°57'1110.6
2016-Jun-26 11:33N 44°13' E 008°45'1010.4
2016-Jun-26 10:33N 44°07' E 008°33'53 2.8
2016-Jun-25 15:26N 43°44' E 007°26'0 0.0
2016-Jun-24 22:31N 43°44' E 007°26'0 0.0
2016-Jun-24 19:25N 43°44' E 007°26'1 0.0
2016-Jun-23 17:04N 43°44' E 007°27'5214.7
2016-Jun-23 13:33N 44°07' E 008°31'1515.3
2016-Jun-23 12:33N 44°16' E 008°49'10 9.6
2016-Jun-23 11:34N 44°24' E 008°55'0 0.3
2016-Jun-23 10:33N 44°25' E 008°55'0 0.0
2016-Jun-23 09:33N 44°25' E 008°55'0 0.0
2016-Jun-23 08:33N 44°25' E 008°55'0 0.0
2016-Jun-23 07:33N 44°25' E 008°55'0 0.0
2016-Jun-23 05:34N 44°25' E 008°55'0 0.0
2016-Jun-23 04:34N 44°25' E 008°55'0 0.0
2016-Jun-23 03:34N 44°25' E 008°55'0 0.0
2016-Jun-23 02:33N 44°25' E 008°55'0 0.0
2016-Jun-23 01:33N 44°25' E 008°55'0 0.0
2016-Jun-23 00:33N 44°25' E 008°55'0 0.0
2016-Jun-22 23:33N 44°25' E 008°55'0 0.0
2016-Jun-22 22:33N 44°25' E 008°55'0 0.0
2016-Jun-22 21:33N 44°25' E 008°55'0 0.0
2016-Jun-22 20:33N 44°25' E 008°55'0 0.0
2016-Jun-22 19:33N 44°25' E 008°55'0 0.0
2016-Jun-22 18:33N 44°25' E 008°55'0 0.0
2016-Jun-22 17:34N 44°25' E 008°55'0 0.0
2016-Jun-22 16:33N 44°25' E 008°55'0 0.0
2016-Jun-22 15:34N 44°25' E 008°55'0 0.0
2016-Jun-22 14:33N 44°25' E 008°55'0 0.0
2016-Jun-22 13:34N 44°25' E 008°55'0 0.0
2016-Jun-22 12:34N 44°25' E 008°55'0 0.0
2016-Jun-22 11:33N 44°25' E 008°55'0 0.0
2016-Jun-22 10:34N 44°25' E 008°55'0 0.0
2016-Jun-22 09:33N 44°25' E 008°55'0 0.0
2016-Jun-22 08:33N 44°25' E 008°55'  
Track history (hours):
 
Tides and Currents Weather Stations Pressure Air Temp Water Temp Dewpoint Dewpoint Depression Visibility Wind Speed Wind Dir Waves Ship Positions

Olmida

Last reported at 2016-Jun-27 07:31 UTC. Time now 2016-Jun-28 22:27 UTC.
Position N 44°24' E 008°56'.

; draft 3.2 m.

Type: Pleasure craft. MMSI: 319196000.

Date/timePositionNaut miles runAvg speedWind from/ knotsBaromVisibWave heightAir tempDewpointWater temp
2016-Jun-27 07:31N 44°24' E 008°56'0 0.0
2016-Jun-27 06:31N 44°24' E 008°56'0 0.0
2016-Jun-27 05:28N 44°24' E 008°56'0 0.0
2016-Jun-27 04:31N 44°24' E 008°56'0 0.0
2016-Jun-27 03:31N 44°24' E 008°56'0 0.0
2016-Jun-27 02:31N 44°24' E 008°56'0 0.0
2016-Jun-27 01:28N 44°24' E 008°56'0 0.0
2016-Jun-27 00:31N 44°24' E 008°56'0 0.0
2016-Jun-26 23:31N 44°24' E 008°56'0 0.0
2016-Jun-26 22:31N 44°24' E 008°56'0 0.0
2016-Jun-26 21:31N 44°24' E 008°56'0 0.0
2016-Jun-26 20:28N 44°24' E 008°56'0 0.0
2016-Jun-26 19:31N 44°24' E 008°56'0 0.0
2016-Jun-26 18:31N 44°24' E 008°56'0 0.0
2016-Jun-26 17:31N 44°24' E 008°56'0 0.0
2016-Jun-26 16:31N 44°24' E 008°56'0 0.0
2016-Jun-26 15:28N 44°24' E 008°56'0 0.0
2016-Jun-26 14:28N 44°24' E 008°56'0 0.0
2016-Jun-26 13:28N 44°24' E 008°56'5 5.2
2016-Jun-26 12:33N 44°19' E 008°57'1110.6
2016-Jun-26 11:33N 44°13' E 008°45'1010.4
2016-Jun-26 10:33N 44°07' E 008°33'53 2.8
2016-Jun-25 15:26N 43°44' E 007°26'0 0.0
2016-Jun-24 22:31N 43°44' E 007°26'0 0.0
2016-Jun-24 19:25N 43°44' E 007°26'1 0.0
2016-Jun-23 17:04N 43°44' E 007°27'5214.7
2016-Jun-23 13:33N 44°07' E 008°31'1515.3
2016-Jun-23 12:33N 44°16' E 008°49'10 9.6
2016-Jun-23 11:34N 44°24' E 008°55'0 0.3
2016-Jun-23 10:33N 44°25' E 008°55'0 0.0
2016-Jun-23 09:33N 44°25' E 008°55'0 0.0
2016-Jun-23 08:33N 44°25' E 008°55'0 0.0
2016-Jun-23 07:33N 44°25' E 008°55'0 0.0
2016-Jun-23 05:34N 44°25' E 008°55'0 0.0
2016-Jun-23 04:34N 44°25' E 008°55'0 0.0
2016-Jun-23 03:34N 44°25' E 008°55'0 0.0
2016-Jun-23 02:33N 44°25' E 008°55'0 0.0
2016-Jun-23 01:33N 44°25' E 008°55'0 0.0
2016-Jun-23 00:33N 44°25' E 008°55'0 0.0
2016-Jun-22 23:33N 44°25' E 008°55'0 0.0
2016-Jun-22 22:33N 44°25' E 008°55'0 0.0
2016-Jun-22 21:33N 44°25' E 008°55'0 0.0
2016-Jun-22 20:33N 44°25' E 008°55'0 0.0
2016-Jun-22 19:33N 44°25' E 008°55'0 0.0
2016-Jun-22 18:33N 44°25' E 008°55'0 0.0
2016-Jun-22 17:34N 44°25' E 008°55'0 0.0
2016-Jun-22 16:33N 44°25' E 008°55'0 0.0
2016-Jun-22 15:34N 44°25' E 008°55'0 0.0
2016-Jun-22 14:33N 44°25' E 008°55'0 0.0
2016-Jun-22 13:34N 44°25' E 008°55'0 0.0
2016-Jun-22 12:34N 44°25' E 008°55'0 0.0
2016-Jun-22 11:33N 44°25' E 008°55'0 0.0
2016-Jun-22 10:34N 44°25' E 008°55'0 0.0
2016-Jun-22 09:33N 44°25' E 008°55'0 0.0
2016-Jun-22 08:33N 44°25' E 008°55'  

Dump ship's entire track history